createdAt,value
2023-05-08T05:01:12.585Z,41.37
2023-05-08T05:02:12.559Z,40.37
2023-05-08T05:03:12.640Z,40.23
2023-05-08T05:04:12.564Z,40.13
2023-05-08T05:05:12.834Z,40.06
2023-05-08T05:06:12.540Z,39.92
2023-05-08T05:07:12.529Z,39.83
2023-05-08T05:08:12.544Z,39.76
2023-05-08T05:09:12.500Z,39.62
2023-05-08T05:10:12.513Z,39.54
2023-05-08T05:11:12.529Z,39.41
2023-05-08T05:12:12.498Z,39.33
2023-05-08T05:13:12.527Z,39.23
2023-05-08T05:14:12.482Z,39.13
2023-05-08T05:15:12.699Z,39.09
2023-05-08T05:16:12.488Z,38.99
2023-05-08T05:17:12.530Z,38.92
2023-05-08T05:18:12.502Z,38.85
2023-05-08T05:19:12.486Z,38.77
2023-05-08T05:20:12.471Z,38.69
2023-05-08T05:21:12.435Z,38.66
2023-05-08T05:22:12.459Z,38.63
2023-05-08T05:23:12.458Z,38.56
2023-05-08T05:24:12.407Z,38.54
2023-05-08T05:25:12.780Z,38.58
2023-05-08T05:26:12.480Z,38.53
2023-05-08T05:27:12.640Z,38.44
2023-05-08T05:28:12.575Z,38.36
2023-05-08T05:29:12.670Z,38.43
2023-05-08T05:30:12.868Z,38.51
2023-05-08T05:31:12.846Z,38.46
2023-05-08T05:32:12.856Z,38.48
2023-05-08T05:33:12.884Z,38.50
2023-05-08T05:34:12.964Z,38.42
2023-05-08T05:35:13.209Z,38.44
2023-05-08T05:36:13.054Z,38.47
2023-05-08T05:37:13.140Z,38.42
2023-05-08T05:38:13.202Z,38.40
2023-05-08T05:39:13.294Z,38.39
2023-05-08T05:40:13.306Z,38.40
2023-05-08T05:41:13.307Z,38.44
2023-05-08T05:42:13.313Z,38.52
2023-05-08T05:43:13.420Z,38.52
2023-05-08T05:44:13.428Z,38.43
2023-05-08T05:45:13.702Z,38.51
2023-05-08T05:46:13.917Z,38.50
2023-05-08T05:47:13.657Z,38.56
2023-05-08T05:48:13.629Z,38.57
2023-05-08T05:49:13.633Z,38.57
2023-05-08T05:50:13.783Z,38.52
2023-05-08T05:51:13.687Z,38.58
2023-05-08T05:52:13.970Z,38.72
2023-05-08T05:53:13.818Z,38.94
2023-05-08T05:54:13.857Z,38.73
2023-05-08T05:55:14.113Z,38.91
2023-05-08T05:56:13.949Z,38.90
2023-05-08T05:57:14.012Z,39.01
2023-05-08T05:58:14.087Z,39.59
2023-05-08T05:59:14.148Z,39.29
2023-05-08T06:00:14.252Z,39.28
2023-05-08T06:01:14.334Z,39.65
2023-05-08T06:02:14.505Z,39.52
2023-05-08T06:03:14.565Z,39.25
2023-05-08T06:04:14.929Z,39.19
2023-05-08T06:05:14.814Z,39.21
2023-05-08T06:06:14.794Z,39.14
2023-05-08T06:07:14.879Z,39.19
2023-05-08T06:08:14.940Z,39.16
2023-05-08T06:09:14.953Z,39.07
2023-05-08T06:10:15.028Z,39.08
2023-05-08T06:11:15.136Z,39.07
2023-05-08T06:12:15.168Z,38.98
2023-05-08T06:13:15.268Z,39.00
2023-05-08T06:14:15.327Z,38.91
2023-05-08T06:15:15.570Z,38.87
2023-05-08T06:16:15.597Z,38.85
2023-05-08T06:17:15.542Z,38.84
2023-05-08T06:18:15.568Z,38.77
2023-05-08T06:19:15.626Z,38.79
2023-05-08T06:20:15.727Z,38.80
2023-05-08T06:21:15.764Z,38.71
2023-05-08T06:22:15.802Z,38.68
2023-05-08T06:23:15.873Z,38.98
2023-05-08T06:24:15.978Z,38.93
2023-05-08T06:25:16.026Z,39.08
2023-05-08T06:26:16.117Z,39.13
2023-05-08T06:27:16.129Z,39.09
2023-05-08T06:28:16.205Z,39.22
2023-05-08T06:29:16.232Z,39.44
2023-05-08T06:30:16.307Z,39.42
2023-05-08T06:31:17.101Z,39.58
2023-05-08T06:32:16.378Z,39.61
2023-05-08T06:33:16.447Z,39.51
2023-05-08T06:34:16.465Z,39.55
2023-05-08T06:35:16.511Z,39.59
2023-05-08T06:36:16.578Z,39.66
2023-05-08T06:37:16.572Z,39.57
2023-05-08T06:38:16.616Z,39.56
2023-05-08T06:39:16.609Z,39.60
2023-05-08T06:40:16.659Z,39.59
2023-05-08T06:41:16.707Z,39.75
2023-05-08T06:42:16.743Z,39.68
2023-05-08T06:43:16.726Z,39.68
2023-05-08T06:44:16.763Z,39.66
2023-05-08T06:45:16.920Z,39.74
2023-05-08T06:46:16.901Z,39.71
2023-05-08T06:47:16.853Z,39.76
2023-05-08T06:48:16.889Z,39.67
2023-05-08T06:49:16.950Z,39.66
2023-05-08T06:50:16.933Z,39.80
2023-05-08T06:51:16.954Z,39.76
2023-05-08T06:52:16.989Z,39.77
2023-05-08T06:53:17.021Z,39.77
2023-05-08T06:54:17.016Z,39.82
2023-05-08T06:55:17.869Z,39.75
2023-05-08T06:56:17.093Z,39.75
2023-05-08T06:57:17.092Z,39.79
2023-05-08T06:58:17.100Z,39.84
2023-05-08T06:59:17.122Z,39.84
2023-05-08T07:00:17.131Z,40.05
2023-05-08T07:01:17.180Z,39.79
2023-05-08T07:02:17.203Z,39.84
2023-05-08T07:03:17.183Z,39.85
2023-05-08T07:04:17.250Z,39.75
2023-05-08T07:05:17.488Z,39.76
2023-05-08T07:06:17.346Z,39.80
2023-05-08T07:07:17.290Z,39.77
2023-05-08T07:08:17.292Z,39.86
2023-05-08T07:09:17.284Z,39.96
2023-05-08T07:10:17.291Z,40.04
2023-05-08T07:11:17.342Z,39.91
2023-05-08T07:12:17.358Z,39.95
2023-05-08T07:13:17.398Z,39.97
2023-05-08T07:14:17.361Z,40.14
2023-05-08T07:15:25.613Z,39.98
2023-05-08T07:16:18.480Z,39.86
2023-05-08T07:17:17.371Z,39.02
2023-05-08T07:18:17.393Z,38.95
2023-05-08T07:19:17.371Z,39.01
2023-05-08T07:20:17.402Z,39.16
2023-05-08T07:21:17.344Z,39.35
2023-05-08T07:22:17.446Z,39.49
2023-05-08T07:23:17.341Z,39.63
2023-05-08T07:24:17.344Z,39.83
2023-05-08T07:25:17.305Z,40.08
2023-05-08T07:26:17.328Z,40.34
2023-05-08T07:27:17.348Z,40.56
2023-05-08T07:28:17.287Z,40.73
2023-05-08T07:29:17.326Z,40.80
2023-05-08T07:30:17.356Z,40.86
2023-05-08T07:31:17.516Z,41.16
2023-05-08T07:32:17.403Z,41.17
2023-05-08T07:33:17.452Z,41.39
2023-05-08T07:34:17.432Z,41.51
2023-05-08T07:35:17.675Z,41.58
2023-05-08T07:36:17.491Z,41.58
2023-05-08T07:37:17.469Z,41.68
2023-05-08T07:38:17.492Z,42.04
2023-05-08T07:39:17.454Z,42.14
2023-05-08T07:40:17.455Z,42.25
2023-05-08T07:41:17.508Z,42.28
2023-05-08T07:42:17.440Z,42.33
2023-05-08T07:43:17.491Z,42.80
2023-05-08T07:44:17.538Z,42.99
2023-05-08T07:45:17.687Z,43.24
2023-05-08T07:46:17.698Z,43.52
2023-05-08T07:47:17.662Z,44.07
2023-05-08T07:48:17.722Z,44.48
2023-05-08T07:49:17.680Z,44.78
2023-05-08T07:50:17.761Z,44.98
2023-05-08T07:51:17.754Z,45.12
2023-05-08T07:52:17.846Z,45.13
2023-05-08T07:53:17.841Z,45.17
2023-05-08T07:54:17.878Z,45.01
2023-05-08T07:55:18.307Z,44.68
2023-05-08T07:56:17.922Z,44.61
2023-05-08T07:57:17.938Z,44.47
2023-05-08T07:58:17.974Z,44.52
2023-05-08T07:59:18.014Z,44.41
2023-05-08T08:00:18.009Z,44.43
2023-05-08T08:01:18.164Z,44.77
2023-05-08T08:02:18.171Z,44.85
2023-05-08T08:03:18.248Z,44.75
2023-05-08T08:04:18.285Z,44.91
2023-05-08T08:05:18.227Z,44.75
2023-05-08T08:06:18.304Z,44.82
2023-05-08T08:07:18.326Z,44.74
2023-05-08T08:08:18.360Z,44.63
2023-05-08T08:09:18.326Z,44.36
2023-05-08T08:10:18.377Z,44.11
2023-05-08T08:11:18.469Z,43.88
2023-05-08T08:12:18.487Z,43.72
2023-05-08T08:13:18.637Z,43.41
2023-05-08T08:14:18.563Z,43.34
2023-05-08T08:15:18.565Z,43.17
2023-05-08T08:16:18.637Z,43.03
2023-05-08T08:17:18.652Z,42.87
2023-05-08T08:18:18.765Z,42.99
2023-05-08T08:19:18.607Z,42.81
2023-05-08T08:20:18.691Z,42.73
2023-05-08T08:21:18.667Z,42.98
2023-05-08T08:22:18.815Z,43.03
2023-05-08T08:23:18.755Z,43.09
2023-05-08T08:24:18.803Z,43.27
2023-05-08T08:25:18.826Z,43.05
2023-05-08T08:26:18.937Z,43.23
2023-05-08T08:27:18.949Z,43.88
2023-05-08T08:28:19.031Z,43.53
2023-05-08T08:29:19.120Z,43.57
2023-05-08T08:30:19.212Z,43.87
2023-05-08T08:31:19.212Z,43.84
2023-05-08T08:32:19.193Z,43.79
2023-05-08T08:33:19.374Z,43.69
2023-05-08T08:34:19.180Z,43.85
2023-05-08T08:35:19.315Z,44.05
2023-05-08T08:36:19.219Z,44.90
2023-05-08T08:37:19.251Z,45.65
2023-05-08T08:38:19.311Z,45.80
2023-05-08T08:39:19.338Z,45.36
2023-05-08T08:40:19.328Z,45.49
2023-05-08T08:41:19.348Z,45.36
2023-05-08T08:42:19.381Z,45.17
2023-05-08T08:43:19.455Z,45.25
2023-05-08T08:44:19.522Z,45.08
2023-05-08T08:45:19.600Z,44.98
2023-05-08T08:46:19.604Z,44.91
2023-05-08T08:47:19.624Z,45.76
2023-05-08T08:48:19.612Z,45.58
2023-05-08T08:49:19.582Z,45.15
2023-05-08T08:50:19.585Z,44.97
2023-05-08T08:51:19.608Z,44.85
2023-05-08T08:52:19.636Z,44.97
2023-05-08T08:53:19.697Z,44.65
2023-05-08T08:54:19.675Z,44.52
2023-05-08T08:55:19.804Z,44.70
2023-05-08T08:56:19.917Z,44.74
2023-05-08T08:57:19.924Z,44.63
2023-05-08T08:58:19.955Z,44.66
2023-05-08T08:59:20.018Z,44.65
2023-05-08T09:00:20.048Z,44.47
2023-05-08T09:01:20.199Z,44.55
2023-05-08T09:02:20.253Z,44.81
2023-05-08T09:03:20.345Z,44.69
2023-05-08T09:04:20.293Z,44.32
2023-05-08T09:05:20.222Z,44.37
2023-05-08T09:06:20.289Z,44.20
2023-05-08T09:07:20.331Z,44.14
2023-05-08T09:08:20.350Z,44.07
2023-05-08T09:09:20.365Z,44.02
2023-05-08T09:10:20.400Z,44.02
2023-05-08T09:11:20.474Z,43.85
2023-05-08T09:12:20.429Z,43.72
2023-05-08T09:13:20.496Z,43.90
2023-05-08T09:14:20.421Z,44.21
2023-05-08T09:15:20.481Z,44.47
2023-05-08T09:16:20.513Z,44.20
2023-05-08T09:17:20.541Z,43.82
2023-05-08T09:18:20.511Z,43.87
2023-05-08T09:19:23.359Z,44.09
2023-05-08T09:20:20.448Z,44.02
2023-05-08T09:21:20.487Z,44.40
2023-05-08T09:22:20.434Z,44.14
2023-05-08T09:23:20.406Z,44.07
2023-05-08T09:24:23.142Z,43.86
2023-05-08T09:25:20.427Z,43.86
2023-05-08T09:26:20.419Z,43.69
2023-05-08T09:27:20.453Z,43.69
2023-05-08T09:28:20.507Z,43.56
2023-05-08T09:29:20.423Z,43.51
2023-05-08T09:30:20.545Z,43.47
2023-05-08T09:31:20.437Z,43.32
2023-05-08T09:32:20.378Z,43.30
2023-05-08T09:33:20.465Z,43.45
2023-05-08T09:34:20.384Z,43.32
2023-05-08T09:35:20.336Z,42.99
2023-05-08T09:36:20.361Z,43.03
2023-05-08T09:37:20.347Z,42.94
2023-05-08T09:38:20.354Z,42.66
2023-05-08T09:39:20.364Z,42.65
2023-05-08T09:40:20.420Z,42.71
2023-05-08T09:41:20.361Z,42.66
2023-05-08T09:42:20.315Z,42.68
2023-05-08T09:43:20.300Z,42.69
2023-05-08T09:44:20.319Z,42.24
2023-05-08T09:45:20.321Z,42.06
2023-05-08T09:46:20.369Z,42.28
2023-05-08T09:47:20.308Z,41.70
2023-05-08T09:48:20.286Z,41.85
2023-05-08T09:49:20.404Z,41.92
2023-05-08T09:50:20.293Z,41.65
2023-05-08T09:51:20.279Z,41.54
2023-05-08T09:52:20.242Z,41.28
2023-05-08T09:53:20.271Z,41.23
2023-05-08T09:54:20.242Z,41.42
2023-05-08T09:55:20.261Z,41.43
2023-05-08T09:56:20.200Z,41.54
2023-05-08T09:57:20.244Z,41.75
2023-05-08T09:58:20.307Z,41.72
2023-05-08T09:59:20.320Z,41.62
2023-05-08T10:00:20.380Z,41.61
2023-05-08T10:01:20.274Z,41.54
2023-05-08T10:02:20.206Z,41.57
2023-05-08T10:03:20.232Z,41.56
2023-05-08T10:04:20.178Z,41.59
2023-05-08T10:05:20.291Z,41.64
2023-05-08T10:06:20.140Z,41.53
2023-05-08T10:07:20.169Z,41.58
2023-05-08T10:08:20.155Z,41.66
2023-05-08T10:09:20.185Z,41.74
2023-05-08T10:10:20.113Z,41.82
2023-05-08T10:11:20.150Z,41.87
2023-05-08T10:12:20.084Z,41.89
2023-05-08T10:13:20.236Z,41.96
2023-05-08T10:14:20.224Z,41.95
2023-05-08T10:15:20.219Z,41.99
2023-05-08T10:16:20.288Z,41.95
2023-05-08T10:17:20.384Z,42.08
2023-05-08T10:18:20.370Z,42.04
2023-05-08T10:19:20.387Z,42.06
2023-05-08T10:20:21.535Z,42.17
2023-05-08T10:21:20.639Z,42.28
2023-05-08T10:22:20.538Z,42.06
2023-05-08T10:23:20.567Z,42.16
2023-05-08T10:24:20.607Z,41.64
2023-05-08T10:25:20.652Z,41.59
2023-05-08T10:26:20.693Z,40.98
2023-05-08T10:27:20.737Z,40.94
2023-05-08T10:28:20.800Z,40.83
2023-05-08T10:29:20.875Z,40.46
2023-05-08T10:30:20.908Z,40.14
2023-05-08T10:31:21.007Z,40.05
2023-05-08T10:32:21.173Z,39.92
2023-05-08T10:33:21.058Z,39.48
2023-05-08T10:34:21.079Z,39.48
2023-05-08T10:35:21.170Z,39.54
2023-05-08T10:36:21.186Z,39.56
2023-05-08T10:37:21.345Z,39.35
2023-05-08T10:38:21.301Z,39.46
2023-05-08T10:39:21.409Z,39.23
2023-05-08T10:40:21.456Z,39.28
2023-05-08T10:41:21.489Z,39.21
2023-05-08T10:42:21.567Z,39.09
2023-05-08T10:43:21.608Z,39.22
2023-05-08T10:44:21.643Z,39.21
2023-05-08T10:45:21.691Z,39.23
2023-05-08T10:46:21.796Z,39.10
2023-05-08T10:47:21.832Z,38.88
2023-05-08T10:48:21.876Z,38.82
2023-05-08T10:49:21.944Z,38.71
2023-05-08T10:50:22.044Z,38.69
2023-05-08T10:51:22.036Z,38.71
2023-05-08T10:52:22.081Z,38.76
2023-05-08T10:53:22.107Z,38.82
2023-05-08T10:54:22.168Z,38.63
2023-05-08T10:55:22.225Z,38.60
2023-05-08T10:56:22.197Z,38.56
2023-05-08T10:57:22.272Z,38.49
2023-05-08T10:58:22.258Z,38.43
2023-05-08T10:59:22.281Z,38.46
2023-05-08T11:00:22.348Z,38.64
2023-05-08T11:01:22.418Z,38.53
2023-05-08T11:02:22.372Z,38.53
2023-05-08T11:03:31.256Z,38.48
2023-05-08T11:04:23.589Z,38.94
2023-05-08T11:05:22.395Z,39.17
2023-05-08T11:06:22.392Z,39.09
2023-05-08T11:07:22.409Z,38.94
2023-05-08T11:08:22.364Z,38.85
2023-05-08T11:09:22.411Z,38.74
2023-05-08T11:10:22.354Z,38.80
2023-05-08T11:11:22.367Z,39.00
2023-05-08T11:12:22.354Z,38.68
2023-05-08T11:13:22.344Z,38.72
2023-05-08T11:14:22.303Z,38.81
2023-05-08T11:15:23.729Z,38.50
2023-05-08T11:16:22.396Z,37.61
2023-05-08T11:17:22.353Z,37.39
2023-05-08T11:18:22.357Z,37.53
2023-05-08T11:19:22.424Z,37.31
2023-05-08T11:20:22.399Z,37.76
2023-05-08T11:21:22.435Z,38.30
2023-05-08T11:22:22.448Z,39.75
2023-05-08T11:23:22.534Z,40.66
2023-05-08T11:24:22.601Z,41.16
2023-05-08T11:25:22.662Z,41.31
2023-05-08T11:26:22.659Z,40.80
2023-05-08T11:27:22.737Z,40.97
2023-05-08T11:28:22.803Z,40.85
2023-05-08T11:29:22.818Z,40.99
2023-05-08T11:30:22.936Z,41.05
2023-05-08T11:31:22.857Z,40.96
2023-05-08T11:32:22.966Z,40.98
2023-05-08T11:33:23.050Z,40.84
2023-05-08T11:34:23.068Z,40.82
2023-05-08T11:35:23.173Z,40.83
2023-05-08T11:36:23.255Z,40.73
2023-05-08T11:37:23.306Z,40.61
2023-05-08T11:38:23.336Z,40.47
2023-05-08T11:39:23.323Z,40.47
2023-05-08T11:40:23.351Z,40.43
2023-05-08T11:41:23.387Z,40.33
2023-05-08T11:42:23.399Z,40.45
2023-05-08T11:43:23.441Z,40.47
2023-05-08T11:44:23.448Z,40.39
2023-05-08T11:45:23.412Z,40.25
2023-05-08T11:46:23.453Z,40.31
2023-05-08T11:47:23.509Z,40.29
2023-05-08T11:48:23.465Z,40.30
2023-05-08T11:49:26.273Z,40.26
2023-05-08T11:50:23.482Z,40.16
2023-05-08T11:51:23.429Z,40.14
2023-05-08T11:52:23.385Z,40.12
2023-05-08T11:53:23.419Z,40.13
2023-05-08T11:54:23.370Z,40.18
2023-05-08T11:55:23.392Z,40.14
2023-05-08T11:56:23.389Z,40.18
2023-05-08T11:57:23.344Z,40.10
2023-05-08T11:58:23.366Z,39.98
2023-05-08T11:59:23.424Z,40.03
2023-05-08T12:00:23.370Z,40.01
2023-05-08T12:01:23.361Z,40.05
2023-05-08T12:02:23.416Z,40.04
2023-05-08T12:03:23.578Z,40.13
2023-05-08T12:04:23.582Z,40.09
2023-05-08T12:05:23.468Z,40.10
2023-05-08T12:06:23.557Z,39.67
2023-05-08T12:07:23.603Z,39.47
2023-05-08T12:08:23.609Z,39.50
2023-05-08T12:09:23.669Z,39.20
2023-05-08T12:10:23.724Z,38.75
2023-05-08T12:11:23.796Z,38.58
2023-05-08T12:12:23.822Z,38.57
2023-05-08T12:13:23.922Z,38.42
2023-05-08T12:14:23.924Z,38.36
2023-05-08T12:15:23.987Z,38.15
2023-05-08T12:16:24.064Z,38.14
2023-05-08T12:17:24.266Z,38.27
2023-05-08T12:18:24.134Z,38.18
2023-05-08T12:19:24.198Z,38.11
2023-05-08T12:20:24.244Z,38.03
2023-05-08T12:21:24.288Z,38.16
2023-05-08T12:22:24.397Z,38.04
2023-05-08T12:23:24.374Z,37.85
2023-05-08T12:24:24.488Z,37.90
2023-05-08T12:25:24.503Z,38.05
2023-05-08T12:26:24.566Z,37.76
2023-05-08T12:27:24.635Z,37.82
2023-05-08T12:28:24.695Z,37.75
2023-05-08T12:29:26.667Z,37.75
2023-05-08T12:30:24.796Z,37.73
2023-05-08T12:31:24.921Z,37.66
2023-05-08T12:32:25.839Z,37.72
2023-05-08T12:33:25.012Z,37.68
2023-05-08T12:34:25.028Z,37.64
2023-05-08T12:35:25.101Z,37.36
2023-05-08T12:36:25.131Z,37.44
2023-05-08T12:37:25.169Z,37.38
2023-05-08T12:38:25.239Z,37.48
2023-05-08T12:39:25.258Z,37.75
2023-05-08T12:40:25.316Z,37.53
2023-05-08T12:41:25.380Z,37.81
2023-05-08T12:42:25.471Z,37.44
2023-05-08T12:43:25.492Z,37.28
2023-05-08T12:44:25.544Z,37.19
2023-05-08T12:45:25.693Z,37.46
2023-05-08T12:46:25.705Z,37.15
2023-05-08T12:47:25.757Z,37.24
2023-05-08T12:48:25.797Z,37.18
2023-05-08T12:49:25.856Z,37.00
2023-05-08T12:50:25.879Z,36.92
2023-05-08T12:51:26.255Z,36.86
2023-05-08T12:52:25.995Z,37.09
2023-05-08T12:53:26.086Z,36.93
2023-05-08T12:54:26.138Z,36.91
2023-05-08T12:55:26.173Z,36.57
2023-05-08T12:56:26.282Z,36.55
2023-05-08T12:57:26.337Z,36.66
2023-05-08T12:58:26.371Z,36.74
2023-05-08T12:59:26.456Z,36.61
2023-05-08T13:00:26.504Z,36.61
2023-05-08T13:01:26.779Z,36.67
2023-05-08T13:02:26.708Z,36.58
2023-05-08T13:03:26.888Z,36.64
2023-05-08T13:04:26.815Z,36.64
2023-05-08T13:05:26.746Z,36.61
2023-05-08T13:06:26.856Z,36.54
2023-05-08T13:07:26.878Z,36.43
2023-05-08T13:08:26.971Z,36.65
2023-05-08T13:09:26.988Z,36.48
2023-05-08T13:10:27.666Z,36.38
2023-05-08T13:11:27.141Z,36.53
2023-05-08T13:12:27.203Z,36.43
2023-05-08T13:13:27.613Z,36.39
2023-05-08T13:14:27.289Z,36.40
2023-05-08T13:15:27.347Z,36.53
2023-05-08T13:16:27.378Z,36.26
2023-05-08T13:17:27.602Z,36.32
2023-05-08T13:18:27.524Z,36.28
2023-05-08T13:19:27.543Z,36.39
2023-05-08T13:20:27.629Z,36.26
2023-05-08T13:21:28.059Z,36.28
2023-05-08T13:22:27.725Z,36.41
2023-05-08T13:23:27.787Z,36.19
2023-05-08T13:24:27.778Z,36.25
2023-05-08T13:25:27.868Z,36.13
2023-05-08T13:26:28.054Z,36.04
2023-05-08T13:27:28.007Z,36.10
2023-05-08T13:28:28.026Z,36.08
2023-05-08T13:29:28.078Z,36.04
2023-05-08T13:30:28.126Z,36.10
2023-05-08T13:31:28.241Z,36.06
2023-05-08T13:32:28.298Z,35.96
2023-05-08T13:33:28.353Z,35.97
2023-05-08T13:34:28.345Z,35.98
2023-05-08T13:35:28.358Z,35.81
2023-05-08T13:36:28.423Z,35.95
2023-05-08T13:37:28.492Z,36.23
2023-05-08T13:38:28.548Z,36.52
2023-05-08T13:39:28.558Z,36.73
2023-05-08T13:40:28.610Z,36.81
2023-05-08T13:41:28.680Z,36.89
2023-05-08T13:42:28.717Z,36.98
2023-05-08T13:43:28.817Z,36.75
2023-05-08T13:44:28.824Z,37.57
2023-05-08T13:45:28.890Z,37.73
2023-05-08T13:46:29.011Z,39.34
2023-05-08T13:47:29.050Z,39.70
2023-05-08T13:48:29.073Z,39.86
2023-05-08T13:49:29.164Z,39.59
2023-05-08T13:50:29.165Z,38.51
2023-05-08T13:51:29.190Z,38.65
2023-05-08T13:52:29.273Z,37.96
2023-05-08T13:53:29.396Z,37.92
2023-05-08T13:54:29.370Z,37.75
2023-05-08T13:55:29.428Z,37.81
2023-05-08T13:56:29.464Z,38.75
2023-05-08T13:57:29.519Z,38.44
2023-05-08T13:58:29.577Z,37.90
2023-05-08T13:59:29.670Z,37.18
2023-05-08T14:00:29.815Z,37.04
2023-05-08T14:01:29.719Z,37.08
2023-05-08T14:02:29.826Z,37.19
2023-05-08T14:03:29.831Z,37.06
2023-05-08T14:04:29.843Z,36.95
2023-05-08T14:05:29.978Z,37.03
2023-05-08T14:06:29.938Z,36.95
2023-05-08T14:07:30.030Z,37.14
2023-05-08T14:08:30.458Z,37.09
2023-05-08T14:09:30.107Z,36.90
2023-05-08T14:10:30.172Z,37.06
2023-05-08T14:11:30.172Z,37.03
2023-05-08T14:12:30.231Z,37.10
2023-05-08T14:13:30.286Z,37.12
2023-05-08T14:14:32.226Z,37.09
2023-05-08T14:15:36.880Z,37.06
2023-05-08T14:16:31.373Z,37.12
2023-05-08T14:17:30.360Z,37.08
2023-05-08T14:18:30.331Z,37.08
2023-05-08T14:19:30.342Z,37.08
2023-05-08T14:20:30.297Z,37.07
2023-05-08T14:21:30.380Z,37.06
2023-05-08T14:22:30.297Z,37.07
2023-05-08T14:23:30.326Z,37.09
2023-05-08T14:24:30.287Z,37.08
2023-05-08T14:25:30.267Z,37.10
2023-05-08T14:26:30.275Z,37.08
2023-05-08T14:27:30.292Z,37.07
2023-05-08T14:28:30.344Z,37.05
2023-05-08T14:29:30.403Z,37.06
2023-05-08T14:30:30.436Z,37.08
2023-05-08T14:31:30.515Z,37.11
2023-05-08T14:32:30.577Z,37.07
2023-05-08T14:33:30.581Z,37.07
2023-05-08T14:34:30.621Z,37.03
2023-05-08T14:35:30.688Z,37.01
2023-05-08T14:36:30.724Z,37.04
2023-05-08T14:37:30.839Z,37.05
2023-05-08T14:38:30.836Z,37.07
2023-05-08T14:39:30.852Z,37.08
2023-05-08T14:40:30.893Z,37.12
2023-05-08T14:41:30.952Z,37.12
2023-05-08T14:42:30.977Z,37.12
2023-05-08T14:43:31.068Z,37.13
2023-05-08T14:44:31.083Z,37.18
2023-05-08T14:45:31.127Z,37.18
2023-05-08T14:46:31.225Z,37.16
2023-05-08T14:47:31.204Z,37.13
2023-05-08T14:48:31.242Z,37.15
2023-05-08T14:49:37.359Z,37.13
2023-05-08T14:50:32.315Z,37.09
2023-05-08T14:51:31.254Z,37.10
2023-05-08T14:52:31.270Z,37.11
2023-05-08T14:53:31.415Z,37.11
2023-05-08T14:54:31.576Z,37.13
2023-05-08T14:55:31.362Z,37.14
2023-05-08T14:56:40.464Z,37.15
2023-05-08T14:57:32.227Z,37.16
2023-05-08T14:58:31.254Z,37.15
2023-05-08T14:59:31.251Z,37.15
2023-05-08T15:00:31.237Z,37.18
2023-05-08T15:01:31.253Z,37.34
2023-05-08T15:02:31.294Z,37.23
2023-05-08T15:03:31.377Z,37.24
2023-05-08T15:04:31.256Z,37.23
2023-05-08T15:05:31.210Z,37.22
2023-05-08T15:06:31.198Z,37.26
2023-05-08T15:07:31.168Z,37.27
2023-05-08T15:08:31.168Z,37.24
2023-05-08T15:09:31.281Z,37.26
2023-05-08T15:10:31.147Z,37.26
2023-05-08T15:11:31.193Z,37.25
2023-05-08T15:12:31.213Z,37.33
2023-05-08T15:13:31.291Z,37.32
2023-05-08T15:14:31.272Z,37.33
2023-05-08T15:15:31.303Z,37.31
2023-05-08T15:16:31.365Z,37.45
2023-05-08T15:17:31.406Z,37.31
2023-05-08T15:18:31.448Z,37.35
2023-05-08T15:19:31.494Z,37.38
2023-05-08T15:20:31.534Z,37.37
2023-05-08T15:21:31.533Z,37.36
2023-05-08T15:22:31.575Z,37.35
2023-05-08T15:23:31.661Z,37.37
2023-05-08T15:24:31.660Z,37.36
2023-05-08T15:25:31.798Z,37.35
2023-05-08T15:26:31.751Z,37.39
2023-05-08T15:27:31.778Z,37.34
2023-05-08T15:28:31.832Z,37.35
2023-05-08T15:29:31.863Z,37.31
2023-05-08T15:30:31.926Z,37.31
2023-05-08T15:31:31.970Z,37.27
2023-05-08T15:32:32.004Z,37.23
2023-05-08T15:33:32.042Z,37.25
2023-05-08T15:34:32.974Z,37.25
2023-05-08T15:35:32.177Z,37.24
2023-05-08T15:36:32.149Z,37.20
2023-05-08T15:37:32.202Z,37.21
2023-05-08T15:38:32.251Z,37.21
2023-05-08T15:39:32.301Z,37.20
2023-05-08T15:40:32.344Z,37.18
2023-05-08T15:41:32.455Z,37.16
2023-05-08T15:42:32.428Z,37.17
2023-05-08T15:43:32.535Z,37.17
2023-05-08T15:44:53.257Z,37.24
2023-05-08T15:45:33.534Z,37.16
2023-05-08T15:46:32.495Z,37.16
2023-05-08T15:47:32.520Z,37.18
2023-05-08T15:48:32.454Z,37.18
2023-05-08T15:49:32.490Z,37.17
2023-05-08T15:50:32.455Z,37.15
2023-05-08T15:51:32.458Z,37.16
2023-05-08T15:52:32.453Z,37.13
2023-05-08T15:53:32.464Z,37.16
2023-05-08T15:54:32.434Z,37.16
2023-05-08T15:55:32.431Z,37.12
2023-05-08T15:56:32.472Z,37.15
2023-05-08T15:57:32.565Z,37.14
2023-05-08T15:58:32.558Z,37.14
2023-05-08T15:59:32.575Z,37.15
2023-05-08T16:00:43.802Z,37.12
2023-05-08T16:01:33.630Z,37.14
2023-05-08T16:02:32.710Z,37.21
2023-05-08T16:03:32.782Z,37.20
2023-05-08T16:04:32.607Z,37.16
2023-05-08T16:05:32.581Z,37.13
2023-05-08T16:06:32.617Z,37.28
2023-05-08T16:07:32.599Z,37.38
2023-05-08T16:08:32.560Z,37.33
2023-05-08T16:09:32.574Z,37.24
2023-05-08T16:10:32.593Z,37.33
2023-05-08T16:11:32.536Z,37.25
2023-05-08T16:12:32.559Z,37.26
2023-05-08T16:13:32.727Z,37.24
2023-05-08T16:14:32.670Z,37.47
2023-05-08T16:15:32.720Z,37.38
2023-05-08T16:16:32.959Z,37.37
2023-05-08T16:17:32.866Z,37.32
2023-05-08T16:18:32.889Z,37.29
2023-05-08T16:19:35.756Z,37.30
2023-05-08T16:20:35.009Z,37.26
2023-05-08T16:21:32.936Z,37.29
2023-05-08T16:22:32.871Z,37.45
2023-05-08T16:23:32.946Z,37.37
2023-05-08T16:24:32.894Z,37.54
2023-05-08T16:25:32.906Z,37.73
2023-05-08T16:26:32.876Z,37.99
2023-05-08T16:27:32.880Z,37.61
2023-05-08T16:28:32.883Z,37.52
2023-05-08T16:29:32.921Z,37.56
2023-05-08T16:30:32.863Z,37.94
2023-05-08T16:31:32.867Z,37.65
2023-05-08T16:32:32.798Z,37.70
2023-05-08T16:33:33.012Z,37.85
2023-05-08T16:34:32.807Z,37.46
2023-05-08T16:35:32.798Z,37.72
2023-05-08T16:36:32.817Z,37.48
2023-05-08T16:37:32.762Z,37.54
2023-05-08T16:38:32.757Z,37.63
2023-05-08T16:39:32.767Z,37.41
2023-05-08T16:40:32.752Z,37.52
2023-05-08T16:41:32.745Z,37.70
2023-05-08T16:42:32.736Z,37.58
2023-05-08T16:43:32.755Z,37.46
2023-05-08T16:44:32.710Z,37.37
2023-05-08T16:45:32.805Z,37.46
2023-05-08T16:46:32.786Z,37.63
2023-05-08T16:47:32.793Z,37.47
2023-05-08T16:48:32.687Z,37.54
2023-05-08T16:49:32.700Z,37.40
2023-05-08T16:50:32.702Z,37.44
2023-05-08T16:51:32.711Z,37.68
2023-05-08T16:52:32.712Z,37.46
2023-05-08T16:53:32.797Z,37.47
2023-05-08T16:54:32.657Z,37.40
2023-05-08T16:55:32.644Z,37.76
2023-05-08T16:56:32.647Z,37.80
2023-05-08T16:57:32.660Z,37.73
2023-05-08T16:58:32.658Z,37.66
2023-05-08T16:59:32.650Z,37.48
2023-05-08T17:00:32.605Z,37.45
